createdAt,value
2023-05-08T00:02:19.325Z,17.70
2023-05-08T00:04:51.203Z,18.20
2023-05-08T00:07:24.476Z,18.00
2023-05-08T00:09:55.458Z,17.90
2023-05-08T00:12:27.074Z,18.10
2023-05-08T00:14:58.719Z,18.10
2023-05-08T00:17:30.475Z,18.20
2023-05-08T00:20:02.197Z,18.00
2023-05-08T00:22:35.023Z,17.90
2023-05-08T00:25:06.924Z,17.90
2023-05-08T00:27:38.756Z,17.90
2023-05-08T00:30:11.462Z,17.90
2023-05-08T00:32:42.748Z,17.70
2023-05-08T00:35:13.787Z,17.70
2023-05-08T00:37:47.458Z,17.80
2023-05-08T00:40:18.586Z,17.60
2023-05-08T00:42:50.211Z,17.60
2023-05-08T00:45:24.630Z,17.60
2023-05-08T00:47:55.834Z,17.80
2023-05-08T00:50:27.754Z,17.80
2023-05-08T00:53:01.860Z,17.90
2023-05-08T00:55:34.032Z,17.50
2023-05-08T00:58:05.983Z,17.60
2023-05-08T01:00:37.565Z,17.80
2023-05-08T01:03:08.861Z,17.90
2023-05-08T01:05:41.118Z,18.40
2023-05-08T01:08:14.560Z,18.70
2023-05-08T01:10:52.940Z,19.00
2023-05-08T01:13:32.649Z,19.60
2023-05-08T01:16:15.374Z,19.80
2023-05-08T01:18:54.381Z,20.20
2023-05-08T01:21:32.449Z,20.60
2023-05-08T01:24:55.523Z,20.70
2023-05-08T01:28:03.637Z,20.90
2023-05-08T01:31:07.767Z,20.50
2023-05-08T01:33:51.401Z,20.30
2023-05-08T01:36:28.640Z,20.40
2023-05-08T01:39:08.913Z,20.20
2023-05-08T01:41:43.264Z,19.40
2023-05-08T01:44:20.388Z,19.50
2023-05-08T01:46:54.539Z,19.10
2023-05-08T01:49:31.046Z,18.40
2023-05-08T01:52:06.539Z,17.90
2023-05-08T01:54:44.228Z,17.50
2023-05-08T01:57:18.854Z,17.40
2023-05-08T01:59:53.103Z,17.10
2023-05-08T02:02:25.786Z,16.80
2023-05-08T02:05:00.472Z,16.70
2023-05-08T02:07:33.260Z,16.60
2023-05-08T02:10:06.167Z,16.50
2023-05-08T02:12:40.397Z,16.20
2023-05-08T02:15:14.382Z,16.00
2023-05-08T02:17:47.391Z,15.90
2023-05-08T02:20:21.769Z,15.80
2023-05-08T02:22:54.740Z,15.70
2023-05-08T02:25:27.699Z,15.70
2023-05-08T02:28:00.914Z,15.70
2023-05-08T02:30:35.412Z,15.70
2023-05-08T02:33:10.723Z,15.80
2023-05-08T02:35:47.840Z,15.70
2023-05-08T02:38:21.410Z,15.70
2023-05-08T02:41:00.258Z,15.60
2023-05-08T02:47:06.826Z,15.40
2023-05-08T02:50:06.390Z,15.30
2023-05-08T02:52:53.683Z,15.20
2023-05-08T02:55:37.676Z,15.10
2023-05-08T02:58:19.409Z,15.00
2023-05-08T03:00:57.903Z,14.90
2023-05-08T03:03:33.803Z,14.70
2023-05-08T03:06:12.698Z,14.60
2023-05-08T03:09:12.167Z,14.50
2023-05-08T03:18:02.413Z,14.10
2023-05-08T03:20:37.688Z,14.00
2023-05-08T03:23:12.560Z,13.90
2023-05-08T03:29:57.143Z,13.60
2023-05-08T03:32:33.647Z,13.40
2023-05-08T03:35:05.764Z,13.30
2023-05-08T03:37:38.115Z,13.30
2023-05-08T03:40:11.740Z,13.30
2023-05-08T03:42:45.194Z,13.40
2023-05-08T03:45:20.052Z,13.30
2023-05-08T03:47:57.765Z,13.20
2023-05-08T03:50:30.134Z,13.20
2023-05-08T03:53:02.250Z,13.10
2023-05-08T03:55:35.071Z,13.00
2023-05-08T03:58:17.447Z,13.00
2023-05-08T04:00:59.835Z,13.00
2023-05-08T04:03:44.648Z,12.90
2023-05-08T04:06:20.120Z,12.90
2023-05-08T04:08:57.922Z,12.80
2023-05-08T04:11:40.415Z,12.70
2023-05-08T04:14:22.118Z,12.70
2023-05-08T04:57:22.685Z,12.60
2023-05-08T04:59:57.080Z,12.50
2023-05-08T05:02:33.943Z,12.50
2023-05-08T05:05:07.026Z,12.50
2023-05-08T05:07:39.292Z,12.40
2023-05-08T05:10:16.207Z,12.50
2023-05-08T05:12:55.733Z,12.40
2023-05-08T05:15:28.764Z,12.30
2023-05-08T05:18:02.154Z,12.30
2023-05-08T05:20:36.755Z,12.20
2023-05-08T05:23:12.390Z,12.20
2023-05-08T05:25:44.568Z,12.10
2023-05-08T05:28:20.767Z,12.10
2023-05-08T06:06:01.848Z,11.60
2023-05-08T06:08:36.027Z,11.60
2023-05-08T06:11:08.575Z,11.60
2023-05-08T06:13:43.838Z,11.60
2023-05-08T06:16:19.685Z,11.50
2023-05-08T06:18:54.484Z,11.50
2023-05-08T06:21:29.952Z,11.60
2023-05-08T06:26:38.250Z,11.50
2023-05-08T09:19:11.951Z,10.60
2023-05-08T16:43:04.680Z,13.80
2023-05-08T16:45:36.592Z,13.70
2023-05-08T16:48:08.635Z,13.70
2023-05-08T16:50:40.543Z,13.60
2023-05-08T16:53:12.767Z,13.60
2023-05-08T16:55:44.129Z,13.50
2023-05-08T16:58:17.966Z,13.70
2023-05-08T17:00:49.573Z,13.80
2023-05-08T17:03:21.080Z,13.80
2023-05-08T17:05:52.558Z,14.00
2023-05-08T17:08:23.313Z,14.10
2023-05-08T17:10:55.002Z,14.20
2023-05-08T17:13:28.580Z,14.40
2023-05-08T17:16:00.818Z,14.30
2023-05-08T17:18:32.223Z,14.40
2023-05-08T17:21:03.816Z,14.40
2023-05-08T17:23:34.795Z,14.40
2023-05-08T17:26:06.608Z,14.40
2023-05-08T17:28:39.438Z,14.20
2023-05-08T17:31:10.638Z,14.20
2023-05-08T17:33:42.441Z,14.20
2023-05-08T17:36:13.496Z,14.10
2023-05-08T17:38:47.074Z,14.30
2023-05-08T17:41:17.980Z,14.30
2023-05-08T17:43:50.857Z,14.40
2023-05-08T17:46:22.168Z,14.60
2023-05-08T17:48:53.362Z,14.60
2023-05-08T17:51:24.980Z,14.70
2023-05-08T17:53:57.479Z,14.60
2023-05-08T17:56:30.529Z,14.60
2023-05-08T17:59:04.354Z,15.00
2023-05-08T18:01:36.110Z,15.30
2023-05-08T18:04:07.952Z,15.40
2023-05-08T18:06:38.915Z,15.60
2023-05-08T18:09:11.735Z,15.10
2023-05-08T18:11:42.447Z,14.90
2023-05-08T18:14:15.608Z,15.10
2023-05-08T18:16:46.792Z,15.10
2023-05-08T18:19:18.344Z,15.30
2023-05-08T18:21:50.285Z,15.30
2023-05-08T18:24:21.954Z,15.40
2023-05-08T18:26:53.829Z,15.50
2023-05-08T18:29:28.183Z,15.50
2023-05-08T18:31:59.728Z,15.40
2023-05-08T18:34:33.098Z,15.20
2023-05-08T18:37:05.371Z,15.20
2023-05-08T18:39:38.546Z,15.30
2023-05-08T18:42:11.302Z,15.50
2023-05-08T18:44:45.266Z,15.70
2023-05-08T18:47:16.863Z,15.80
2023-05-08T18:49:49.148Z,15.80
2023-05-08T18:52:24.360Z,15.50
2023-05-08T18:54:57.264Z,15.80
2023-05-08T18:57:29.162Z,15.70
2023-05-08T19:00:03.204Z,15.80
2023-05-08T19:02:34.889Z,15.80
2023-05-08T19:05:06.742Z,15.60
2023-05-08T19:07:37.721Z,15.40
2023-05-08T19:10:11.484Z,15.30
2023-05-08T19:12:43.936Z,15.50
2023-05-08T19:15:18.798Z,15.50
2023-05-08T19:17:50.332Z,15.50
2023-05-08T19:20:24.270Z,15.60
2023-05-08T19:22:56.578Z,16.10
2023-05-08T19:25:29.840Z,16.30
2023-05-08T19:28:01.741Z,16.50
2023-05-08T19:30:36.174Z,16.40
2023-05-08T19:33:08.376Z,16.10
2023-05-08T19:35:40.773Z,16.10
2023-05-08T19:38:15.050Z,16.10
2023-05-08T19:40:57.480Z,16.20
2023-05-08T19:43:30.423Z,16.20
2023-05-08T19:46:05.581Z,16.30
2023-05-08T19:48:39.218Z,16.30
2023-05-08T19:51:12.557Z,16.30
2023-05-08T19:53:44.484Z,16.20
2023-05-08T19:56:15.999Z,16.20
2023-05-08T19:58:47.510Z,16.20
2023-05-08T20:01:22.191Z,16.20
2023-05-08T20:03:53.760Z,16.30
2023-05-08T20:06:25.358Z,16.60
2023-05-08T20:08:57.402Z,17.00
2023-05-08T20:11:28.850Z,17.20
2023-05-08T20:14:01.178Z,17.50
2023-05-08T20:16:34.843Z,17.50
2023-05-08T20:19:06.327Z,17.50
2023-05-08T20:21:38.151Z,17.40
2023-05-08T20:24:10.516Z,17.30
2023-05-08T20:26:42.338Z,17.30
2023-05-08T20:29:14.114Z,17.20
2023-05-08T20:31:47.684Z,17.30
2023-05-08T20:34:21.205Z,17.50
2023-05-08T20:36:57.340Z,17.70
2023-05-08T20:39:29.162Z,17.70
2023-05-08T20:42:01.421Z,17.60
2023-05-08T20:44:34.098Z,17.80
2023-05-08T20:47:09.708Z,17.70
2023-05-08T20:49:42.544Z,17.70
2023-05-08T20:52:14.364Z,17.70
2023-05-08T20:54:48.327Z,17.80
2023-05-08T20:59:56.791Z,18.20
2023-05-08T21:02:35.777Z,18.30
2023-05-08T21:05:09.340Z,18.50
2023-05-08T21:47:54.250Z,19.30
2023-05-08T21:53:04.894Z,19.10
2023-05-08T21:55:37.400Z,18.90
2023-05-08T22:00:52.384Z,18.30
2023-05-08T22:03:31.110Z,18.20
2023-05-08T22:06:03.013Z,17.80
2023-05-08T22:08:35.994Z,17.80
2023-05-08T22:11:09.986Z,17.70
2023-05-08T22:13:42.631Z,17.80
2023-05-08T22:16:17.010Z,17.80
2023-05-08T22:18:57.079Z,17.60
2023-05-08T22:21:31.134Z,17.70
2023-05-08T22:24:08.481Z,17.50
2023-05-08T22:26:40.505Z,17.50
2023-05-08T22:29:12.657Z,17.40
2023-05-08T22:31:47.467Z,17.50
2023-05-08T22:34:23.316Z,18.00
2023-05-08T22:36:56.413Z,18.50
2023-05-08T22:39:29.695Z,18.90
2023-05-08T22:42:02.905Z,18.80
2023-05-08T22:44:35.832Z,18.80
2023-05-08T22:47:07.473Z,18.50
2023-05-08T22:49:42.684Z,18.50
2023-05-08T22:52:14.340Z,18.70
2023-05-08T22:54:46.216Z,19.00
2023-05-08T22:57:17.390Z,19.30
2023-05-08T22:59:49.352Z,19.60
2023-05-08T23:02:20.434Z,19.90
2023-05-08T23:04:53.675Z,20.20
2023-05-08T23:07:25.251Z,20.10
2023-05-08T23:09:57.061Z,20.20
2023-05-08T23:12:28.503Z,20.30
2023-05-08T23:14:59.908Z,20.20
2023-05-08T23:17:31.343Z,19.90
2023-05-08T23:20:05.954Z,19.70
2023-05-08T23:22:37.320Z,19.50
2023-05-08T23:25:09.676Z,19.30
2023-05-08T23:27:41.150Z,19.20
2023-05-08T23:30:14.031Z,19.40
2023-05-08T23:32:45.447Z,19.70
2023-05-08T23:35:18.529Z,19.80
2023-05-08T23:37:50.006Z,19.90
2023-05-08T23:40:21.490Z,20.00
2023-05-08T23:42:53.152Z,20.10
2023-05-08T23:45:25.568Z,20.30
2023-05-08T23:47:56.849Z,20.50
2023-05-08T23:50:30.073Z,20.50
2023-05-08T23:53:01.208Z,20.60
2023-05-08T23:55:32.641Z,20.60
2023-05-08T23:58:03.825Z,20.90
